Audubon, Illinois
Current Conditions -  °F | °C
As of 11:55 AM on Tuesday 21 Oct 2014 (Local Time) from KTAZ Reporting Station
Clear Clear  
Wind Chill: 15°   Ceiling: Unl
Heat Index: 15°   Visibility: 10mi
Dew Point:   Wind: 12mph
Humidity: 51%   Direction: 350°N
Pressure: 30.15"   Gusts: 17mph
Location:  39.3183°N, 89.2952°W
Report Text: KTAZ 211655Z AUTO 35010G15KT 10SM CLR 15/05 A3015 RMK AO2
Loading
Personal Weather Stations






























Interactive Weather Map
Tropical Storm Tracking
New forecast layout! Learn more

10-Day Weather Forecast

Advertisements
Track Severe Weather on mobile